Terminal Aerodrome Forecast
Issued by NWS Greer, SC

Home | Current Version | Previous Version | Text Only | Print | Product List | Glossary On
Versions: 1 2 3 4 5 6 7 8 9 10 11 12
000
FTUS42 KGSP 231100
TAFGSP
TAF
KGSP 231123Z 2312/2412 03008KT P6SM SCT050 BKN120
     FM231600 04008KT P6SM BKN050
     FM240000 04007KT P6SM SCT050 BKN120=

USA.gov is the U.S. government's official web portal to all federal, state and local government web resources and services.